createdAt,value
2018-07-17T00:02:27.728Z,2.33
2018-07-17T00:04:56.393Z,2.70
2018-07-17T00:07:25.224Z,2.60
2018-07-17T00:09:54.053Z,2.40
2018-07-17T00:12:22.720Z,2.63
2018-07-17T00:14:51.491Z,2.40
2018-07-17T00:17:20.195Z,2.93
2018-07-17T00:19:48.993Z,2.40
2018-07-17T00:22:17.837Z,2.40
2018-07-17T00:24:46.526Z,2.70
2018-07-17T00:27:15.238Z,2.40
2018-07-17T00:29:43.872Z,2.73
2018-07-17T00:32:12.530Z,2.53
2018-07-17T00:34:41.261Z,2.80
2018-07-17T00:37:10.011Z,2.47
2018-07-17T00:39:38.658Z,2.83
2018-07-17T00:42:07.285Z,2.87
2018-07-17T00:44:35.972Z,2.53
2018-07-17T00:47:04.577Z,2.80
2018-07-17T00:49:33.216Z,2.60
2018-07-17T00:52:01.891Z,2.63
2018-07-17T00:54:30.534Z,3.13
2018-07-17T00:56:59.214Z,2.83
2018-07-17T00:59:27.938Z,2.97
2018-07-17T01:02:01.725Z,2.67
2018-07-17T01:04:35.570Z,2.70
2018-07-17T01:07:09.347Z,2.60
2018-07-17T01:09:43.316Z,3.10
2018-07-17T01:12:12.867Z,2.83
2018-07-17T01:14:50.860Z,2.50
2018-07-17T01:17:19.579Z,2.90
2018-07-17T01:19:48.291Z,2.80
2018-07-17T01:22:17.014Z,2.47
2018-07-17T01:24:45.748Z,2.70
2018-07-17T01:27:14.402Z,2.87
2018-07-17T01:29:43.121Z,2.83
2018-07-17T01:32:11.781Z,3.10
2018-07-17T01:34:40.420Z,3.33
2018-07-17T01:37:09.160Z,2.80
2018-07-17T01:39:37.953Z,2.90
2018-07-17T01:42:06.789Z,3.37
2018-07-17T01:44:35.445Z,3.20
2018-07-17T01:47:04.090Z,3.50
2018-07-17T01:49:32.699Z,3.20
2018-07-17T01:52:01.314Z,3.00
2018-07-17T01:54:30.031Z,3.07
2018-07-17T01:56:58.693Z,3.07
2018-07-17T01:59:27.407Z,3.00
2018-07-17T02:01:56.051Z,3.13
2018-07-17T02:04:24.642Z,3.00
2018-07-17T02:06:53.708Z,3.17
2018-07-17T02:09:22.358Z,2.80
2018-07-17T02:11:51.047Z,2.97
2018-07-17T02:14:19.707Z,3.20
2018-07-17T02:16:48.303Z,2.80
2018-07-17T02:19:16.972Z,2.83
2018-07-17T02:21:45.591Z,3.00
2018-07-17T02:24:14.264Z,3.07
2018-07-17T02:26:42.844Z,3.43
2018-07-17T02:29:11.453Z,3.13
2018-07-17T02:31:40.131Z,2.87
2018-07-17T02:34:08.752Z,3.00
2018-07-17T02:36:37.523Z,3.13
2018-07-17T02:39:07.852Z,3.13
2018-07-17T02:41:36.565Z,3.03
2018-07-17T02:44:05.212Z,3.20
2018-07-17T02:46:33.813Z,2.90
2018-07-17T02:49:02.410Z,3.40
2018-07-17T02:51:31.492Z,3.10
2018-07-17T02:54:00.300Z,3.37
2018-07-17T02:56:28.954Z,3.20
2018-07-17T02:58:57.725Z,3.00
2018-07-17T03:01:26.380Z,3.00
2018-07-17T03:03:55.042Z,3.13
2018-07-17T03:06:23.904Z,3.00
2018-07-17T03:08:52.626Z,3.10
2018-07-17T03:11:21.258Z,3.17
2018-07-17T03:13:49.969Z,3.60
2018-07-17T03:16:18.719Z,3.53
2018-07-17T03:18:47.358Z,3.47
2018-07-17T03:21:16.111Z,3.17
2018-07-17T03:23:44.812Z,3.63
2018-07-17T03:26:13.472Z,3.20
2018-07-17T03:28:42.094Z,3.73
2018-07-17T03:31:10.740Z,3.47
2018-07-17T03:33:39.374Z,3.30
2018-07-17T03:36:08.073Z,3.13
2018-07-17T03:38:37.052Z,3.40
2018-07-17T03:41:05.678Z,3.13
2018-07-17T03:43:34.420Z,3.33
2018-07-17T03:46:03.172Z,3.50
2018-07-17T03:48:31.894Z,3.70
2018-07-17T03:51:00.495Z,2.93
2018-07-17T03:53:29.112Z,3.07
2018-07-17T03:55:57.927Z,2.80
2018-07-17T03:58:26.614Z,3.00
2018-07-17T04:00:55.370Z,3.17
2018-07-17T04:03:23.988Z,2.97
2018-07-17T04:05:52.716Z,2.87
2018-07-17T04:08:21.476Z,2.80
2018-07-17T04:10:50.236Z,2.83
2018-07-17T04:13:18.856Z,3.13
2018-07-17T04:15:47.501Z,2.70
2018-07-17T04:18:16.220Z,2.90
2018-07-17T04:20:44.979Z,2.80
2018-07-17T04:23:13.655Z,3.00
2018-07-17T04:25:42.319Z,3.13
2018-07-17T04:28:11.023Z,2.87
2018-07-17T04:30:39.699Z,2.73
2018-07-17T04:33:08.407Z,2.73
2018-07-17T04:35:37.038Z,2.60
2018-07-17T04:38:06.020Z,2.30
2018-07-17T04:40:34.594Z,2.50
2018-07-17T04:43:03.337Z,2.60
2018-07-17T04:45:32.288Z,2.43
2018-07-17T04:48:00.977Z,2.60
2018-07-17T04:50:29.622Z,2.93
2018-07-17T04:52:58.258Z,3.40
2018-07-17T04:55:26.960Z,2.60
2018-07-17T04:57:55.707Z,2.53
2018-07-17T05:00:24.397Z,2.37
2018-07-17T05:02:53.203Z,2.50
2018-07-17T05:05:21.912Z,2.30
2018-07-17T05:07:50.682Z,2.37
2018-07-17T05:10:19.337Z,2.50
2018-07-17T05:12:47.958Z,2.40
2018-07-17T05:15:16.709Z,2.13
2018-07-17T05:17:45.386Z,2.07
2018-07-17T05:20:13.984Z,2.30
2018-07-17T05:22:42.667Z,2.20
2018-07-17T05:25:11.318Z,1.97
2018-07-17T05:27:39.990Z,2.30
2018-07-17T05:30:08.689Z,1.97
2018-07-17T05:32:37.326Z,1.80
2018-07-17T05:35:06.108Z,1.90
2018-07-17T05:37:34.759Z,1.60
2018-07-17T05:40:03.457Z,1.90
2018-07-17T05:42:32.224Z,2.00
2018-07-17T05:45:00.841Z,1.80
2018-07-17T05:47:29.526Z,1.73
2018-07-17T05:49:58.224Z,1.70
2018-07-17T05:52:26.869Z,1.70
2018-07-17T05:54:55.514Z,2.30
2018-07-17T05:57:24.191Z,1.90
2018-07-17T05:59:53.117Z,1.80
2018-07-17T06:02:21.797Z,1.80
2018-07-17T06:04:50.462Z,1.67
2018-07-17T06:07:19.142Z,2.10
2018-07-17T06:09:47.842Z,2.43
2018-07-17T06:12:16.497Z,2.03
2018-07-17T06:14:45.207Z,1.87
2018-07-17T06:17:13.974Z,1.90
2018-07-17T06:19:42.589Z,2.20
2018-07-17T06:22:11.227Z,1.93
2018-07-17T06:24:39.928Z,2.13
2018-07-17T06:27:08.626Z,1.80
2018-07-17T06:29:37.301Z,1.97
2018-07-17T06:32:05.953Z,2.10
2018-07-17T06:34:34.680Z,2.03
2018-07-17T06:37:03.354Z,1.90
2018-07-17T06:39:32.120Z,1.70
2018-07-17T06:42:01.073Z,1.80
2018-07-17T06:44:29.796Z,1.80
2018-07-17T06:46:58.505Z,2.40
2018-07-17T06:49:27.170Z,1.73
2018-07-17T06:51:55.833Z,1.80
2018-07-17T06:54:24.685Z,2.00
2018-07-17T06:56:53.318Z,1.80
2018-07-17T06:59:22.192Z,1.80
2018-07-17T07:01:50.829Z,1.70
2018-07-17T07:04:19.487Z,1.97
2018-07-17T07:06:48.114Z,1.90
2018-07-17T07:09:17.368Z,1.70
2018-07-17T07:11:46.133Z,1.70
2018-07-17T07:14:14.737Z,1.47
2018-07-17T07:16:43.401Z,1.90
2018-07-17T07:19:12.042Z,1.67
2018-07-17T07:21:40.707Z,1.80
2018-07-17T07:24:09.446Z,1.90
2018-07-17T07:26:38.120Z,1.90
2018-07-17T07:29:06.768Z,2.57
2018-07-17T07:31:35.404Z,1.70
2018-07-17T07:34:04.144Z,1.80
2018-07-17T07:36:32.766Z,1.87
2018-07-17T07:39:01.384Z,1.87
2018-07-17T07:41:30.039Z,1.90
2018-07-17T07:43:58.828Z,1.90
2018-07-17T07:46:27.665Z,2.00
2018-07-17T07:48:56.518Z,2.00
2018-07-17T07:51:25.127Z,2.10
2018-07-17T07:53:53.841Z,2.60
2018-07-17T07:56:22.472Z,1.80
2018-07-17T07:58:51.136Z,2.20
2018-07-17T08:01:19.854Z,2.20
2018-07-17T08:03:48.481Z,1.87
2018-07-17T08:06:17.134Z,1.90
2018-07-17T08:08:45.881Z,1.80
2018-07-17T08:11:14.604Z,1.87
2018-07-17T08:13:43.269Z,1.77
2018-07-17T08:16:11.998Z,1.80
2018-07-17T08:18:40.703Z,2.27
2018-07-17T08:21:09.415Z,2.13
2018-07-17T08:23:38.098Z,2.13
2018-07-17T08:26:06.759Z,1.90
2018-07-17T08:28:35.385Z,2.27
2018-07-17T08:31:04.143Z,2.00
2018-07-17T08:33:33.086Z,2.10
2018-07-17T08:36:01.835Z,1.97
2018-07-17T08:38:30.461Z,1.83
2018-07-17T08:40:59.142Z,1.87
2018-07-17T08:43:27.910Z,1.80
2018-07-17T08:45:56.418Z,1.70
2018-07-17T08:48:25.012Z,2.00
2018-07-17T08:50:53.743Z,1.90
2018-07-17T08:53:22.439Z,1.80
2018-07-17T08:55:51.119Z,1.80
2018-07-17T08:58:19.812Z,2.00
2018-07-17T09:00:48.521Z,1.70
2018-07-17T09:03:23.818Z,1.53
2018-07-17T09:05:52.510Z,1.63
2018-07-17T09:08:21.204Z,1.60
2018-07-17T09:10:50.017Z,1.40
2018-07-17T09:13:18.639Z,1.60
2018-07-17T09:15:47.232Z,1.50
2018-07-17T09:18:16.015Z,1.90
2018-07-17T09:20:44.661Z,2.00
2018-07-17T09:23:13.286Z,1.70
2018-07-17T09:25:41.943Z,1.70
2018-07-17T09:28:10.544Z,1.50
2018-07-17T09:30:44.453Z,1.63
2018-07-17T09:33:13.170Z,1.63
2018-07-17T09:35:41.819Z,1.60
2018-07-17T09:38:10.456Z,1.67
2018-07-17T09:40:39.073Z,1.90
2018-07-17T09:43:07.957Z,1.47
2018-07-17T09:45:36.629Z,1.50
2018-07-17T09:48:05.425Z,1.40
2018-07-17T09:50:34.121Z,1.93
2018-07-17T09:53:02.930Z,1.53
2018-07-17T09:55:31.807Z,1.77
2018-07-17T09:58:00.580Z,1.80
2018-07-17T10:00:39.122Z,1.50
2018-07-17T10:03:07.935Z,1.53
2018-07-17T10:05:36.644Z,1.70
2018-07-17T10:08:05.350Z,1.80
2018-07-17T10:10:34.217Z,1.90
2018-07-17T10:13:02.960Z,1.40
2018-07-17T10:15:31.715Z,1.60
2018-07-17T10:18:00.343Z,1.60
2018-07-17T10:20:28.985Z,1.50
2018-07-17T10:22:57.816Z,1.67
2018-07-17T10:25:26.575Z,1.70
2018-07-17T10:27:55.344Z,1.50
2018-07-17T10:30:24.064Z,1.70
2018-07-17T10:32:52.686Z,1.60
2018-07-17T10:35:21.344Z,1.70
2018-07-17T10:37:50.078Z,1.40
2018-07-17T10:40:18.785Z,1.67
2018-07-17T10:42:47.570Z,2.30
2018-07-17T10:45:16.357Z,1.57
2018-07-17T10:47:45.043Z,1.30
2018-07-17T10:50:13.754Z,1.30
2018-07-17T10:52:42.397Z,1.67
2018-07-17T10:55:11.032Z,1.40
2018-07-17T10:57:40.273Z,1.27
2018-07-17T11:00:08.908Z,1.20
2018-07-17T11:02:37.670Z,1.57
2018-07-17T11:05:06.307Z,1.00
2018-07-17T11:07:35.003Z,1.40
2018-07-17T11:10:03.743Z,1.10
2018-07-17T11:12:32.370Z,1.10
2018-07-17T11:15:00.987Z,1.20
2018-07-17T11:17:29.948Z,1.23
2018-07-17T11:19:58.641Z,1.27
2018-07-17T11:22:27.361Z,1.70
2018-07-17T11:24:56.015Z,1.50
2018-07-17T11:27:24.804Z,1.07
2018-07-17T11:29:53.437Z,1.17
2018-07-17T11:32:22.030Z,1.10
2018-07-17T11:34:50.692Z,1.10
2018-07-17T11:37:19.533Z,1.20
2018-07-17T11:39:48.235Z,1.13
2018-07-17T11:42:16.930Z,1.20
2018-07-17T11:44:45.593Z,1.00
2018-07-17T11:47:14.206Z,1.30
2018-07-17T11:49:42.863Z,1.17
2018-07-17T11:52:11.456Z,1.20
2018-07-17T11:54:40.089Z,1.20
2018-07-17T11:57:08.843Z,1.23
2018-07-17T11:59:37.655Z,1.00
2018-07-17T12:02:06.468Z,0.90
2018-07-17T12:04:35.326Z,1.30
2018-07-17T12:07:03.916Z,1.20
2018-07-17T12:09:32.617Z,1.33
2018-07-17T12:12:01.391Z,1.30
2018-07-17T12:14:30.143Z,1.20
2018-07-17T12:16:58.942Z,1.13
2018-07-17T12:19:27.720Z,1.10
2018-07-17T12:21:56.401Z,1.13
2018-07-17T12:24:25.238Z,1.10
2018-07-17T12:26:53.877Z,1.43
2018-07-17T12:29:22.565Z,1.20
2018-07-17T12:31:51.236Z,1.80
2018-07-17T12:34:19.807Z,1.43
2018-07-17T12:36:48.535Z,1.00
2018-07-17T12:39:17.167Z,1.00
2018-07-17T12:41:45.889Z,1.00
2018-07-17T12:44:14.528Z,1.13
2018-07-17T12:46:43.097Z,1.20
2018-07-17T12:49:11.871Z,1.30
2018-07-17T12:51:40.558Z,1.13
2018-07-17T12:54:09.248Z,1.00
2018-07-17T12:56:37.932Z,1.43
2018-07-17T12:59:06.655Z,1.10
2018-07-17T13:01:35.468Z,1.13
2018-07-17T13:04:04.311Z,1.30
2018-07-17T13:06:33.185Z,0.90
2018-07-17T13:09:01.861Z,1.00
2018-07-17T13:11:30.538Z,1.23
2018-07-17T13:13:59.523Z,1.30
2018-07-17T13:16:28.418Z,1.00
2018-07-17T13:18:57.081Z,1.07
2018-07-17T13:21:26.440Z,1.10
2018-07-17T13:23:55.369Z,0.93
2018-07-17T13:26:24.127Z,0.90
2018-07-17T13:28:52.953Z,1.20
2018-07-17T13:31:21.736Z,1.22
2018-07-17T13:33:50.501Z,1.15
2018-07-17T13:36:19.161Z,1.50
2018-07-17T13:38:48.017Z,1.10
2018-07-17T13:41:16.717Z,1.40
2018-07-17T13:43:45.376Z,1.32
2018-07-17T13:46:14.261Z,1.32
2018-07-17T13:48:42.961Z,1.20
2018-07-17T13:51:11.780Z,1.17
2018-07-17T13:53:40.402Z,1.20
2018-07-17T13:56:09.292Z,1.25
2018-07-17T13:58:37.915Z,1.00
2018-07-17T14:01:06.681Z,1.17
2018-07-17T14:03:35.937Z,1.27
2018-07-17T14:06:04.816Z,1.40
2018-07-17T14:08:33.389Z,1.13
2018-07-17T14:11:02.084Z,1.37
2018-07-17T14:13:31.455Z,1.10
2018-07-17T14:16:00.278Z,1.10
2018-07-17T14:18:29.016Z,1.20
2018-07-17T14:20:57.721Z,1.20
2018-07-17T14:23:26.509Z,1.10
2018-07-17T14:25:55.199Z,1.50
2018-07-17T14:28:23.850Z,1.37
2018-07-17T14:30:52.618Z,1.10
2018-07-17T14:33:21.433Z,1.10
2018-07-17T14:35:50.096Z,1.60
2018-07-17T14:38:18.716Z,1.73
2018-07-17T14:40:47.693Z,1.30
2018-07-17T14:43:16.456Z,1.20
2018-07-17T14:45:45.101Z,1.30
2018-07-17T14:48:14.039Z,1.40
2018-07-17T14:50:42.671Z,1.40
2018-07-17T14:53:11.439Z,1.50
2018-07-17T14:55:40.077Z,1.50
2018-07-17T14:58:08.797Z,1.17
2018-07-17T15:00:37.445Z,1.10
2018-07-17T15:03:06.230Z,1.27
2018-07-17T15:05:35.127Z,1.20
2018-07-17T15:08:03.845Z,1.10
2018-07-17T15:10:32.463Z,1.47
2018-07-17T15:13:01.187Z,1.40
2018-07-17T15:15:30.067Z,1.17
2018-07-17T15:17:58.749Z,1.10
2018-07-17T15:20:27.518Z,1.10
2018-07-17T15:22:56.164Z,1.57
2018-07-17T15:25:24.816Z,1.30
2018-07-17T15:27:53.525Z,1.37
2018-07-17T15:30:22.295Z,1.23
2018-07-17T15:32:51.120Z,1.60
2018-07-17T15:35:23.194Z,1.37
2018-07-17T15:37:51.939Z,1.10
2018-07-17T15:40:20.628Z,1.50
2018-07-17T15:42:49.412Z,1.20
2018-07-17T15:45:18.319Z,1.30
2018-07-17T15:47:47.032Z,1.40
2018-07-17T15:50:15.786Z,1.33
2018-07-17T15:52:44.440Z,1.30
2018-07-17T15:55:13.080Z,1.30
2018-07-17T15:57:41.756Z,1.20
2018-07-17T16:00:10.584Z,1.37
2018-07-17T16:02:39.267Z,1.20
2018-07-17T16:05:08.026Z,1.50
2018-07-17T16:07:37.077Z,1.30
2018-07-17T16:10:06.073Z,1.33
2018-07-17T16:12:34.829Z,1.50
2018-07-17T16:15:03.661Z,1.33
2018-07-17T16:17:32.655Z,1.40
2018-07-17T16:20:01.559Z,1.40
2018-07-17T16:22:30.436Z,1.40
2018-07-17T16:24:59.152Z,1.53
2018-07-17T16:27:27.878Z,1.33
2018-07-17T16:29:56.840Z,1.13
2018-07-17T16:32:25.525Z,1.27
2018-07-17T16:34:54.250Z,1.60
2018-07-17T16:37:23.078Z,1.30
2018-07-17T16:39:52.726Z,1.30
2018-07-17T16:42:21.385Z,1.20
2018-07-17T16:44:50.051Z,1.37
2018-07-17T16:47:18.744Z,1.30
2018-07-17T16:49:47.368Z,1.40
2018-07-17T16:52:16.168Z,1.10
2018-07-17T16:54:44.866Z,1.30
2018-07-17T16:57:13.543Z,1.50
2018-07-17T16:59:42.183Z,1.27
2018-07-17T17:02:10.906Z,1.20
2018-07-17T17:04:39.589Z,1.20
2018-07-17T17:07:08.346Z,1.17
2018-07-17T17:09:37.426Z,1.33
2018-07-17T17:12:06.479Z,1.40
2018-07-17T17:14:35.295Z,1.50
2018-07-17T17:17:03.953Z,1.80
2018-07-17T17:19:32.638Z,1.40
2018-07-17T17:22:01.395Z,1.20
2018-07-17T17:24:30.098Z,1.13
2018-07-17T17:26:58.774Z,1.20
2018-07-17T17:29:27.554Z,1.10
2018-07-17T17:31:56.127Z,1.43
2018-07-17T17:34:24.818Z,1.50
2018-07-17T17:36:53.402Z,1.23
2018-07-17T17:39:22.054Z,1.30
2018-07-17T17:41:50.730Z,1.47
2018-07-17T17:44:19.398Z,1.33
2018-07-17T17:46:48.018Z,1.30
2018-07-17T17:49:16.735Z,1.60
2018-07-17T17:51:45.386Z,1.30
2018-07-17T17:54:14.067Z,1.30
2018-07-17T17:56:42.736Z,1.37
2018-07-17T17:59:11.409Z,1.37
2018-07-17T18:01:40.159Z,1.17
2018-07-17T18:04:08.841Z,1.40
2018-07-17T18:06:37.558Z,1.07
2018-07-17T18:09:07.877Z,1.30
2018-07-17T18:11:37.462Z,1.53
2018-07-17T18:14:06.192Z,1.30
2018-07-17T18:16:34.863Z,1.50
2018-07-17T18:19:03.544Z,1.50
2018-07-17T18:21:32.293Z,1.30
2018-07-17T18:24:01.062Z,1.30
2018-07-17T18:26:29.841Z,1.30
2018-07-17T18:28:58.570Z,1.33
2018-07-17T18:31:27.271Z,1.33
2018-07-17T18:33:55.922Z,1.50
2018-07-17T18:36:24.569Z,1.20
2018-07-17T18:38:53.246Z,1.40
2018-07-17T18:41:21.941Z,1.50
2018-07-17T18:43:50.544Z,1.40
2018-07-17T18:46:19.444Z,1.93
2018-07-17T18:48:48.470Z,1.57
2018-07-17T18:51:17.597Z,1.50
2018-07-17T18:53:46.515Z,1.47
2018-07-17T18:56:15.103Z,1.50
2018-07-17T18:58:44.743Z,2.40
2018-07-17T19:01:13.461Z,1.30
2018-07-17T19:03:42.058Z,1.40
2018-07-17T19:06:10.833Z,1.30
2018-07-17T19:08:39.691Z,1.63
2018-07-17T19:11:08.561Z,1.40
2018-07-17T19:13:37.585Z,1.60
2018-07-17T19:16:06.308Z,1.40
2018-07-17T19:18:34.966Z,2.00
2018-07-17T19:21:03.771Z,1.50
2018-07-17T19:23:32.419Z,1.73
2018-07-17T19:26:01.206Z,1.70
2018-07-17T19:28:29.772Z,1.90
2018-07-17T19:30:58.417Z,1.77
2018-07-17T19:33:27.146Z,1.80
2018-07-17T19:35:55.788Z,1.83
2018-07-17T19:38:24.481Z,1.80
2018-07-17T19:40:53.196Z,1.70
2018-07-17T19:43:21.888Z,1.47
2018-07-17T19:45:50.589Z,1.30
2018-07-17T19:48:19.446Z,1.40
2018-07-17T19:50:48.084Z,1.67
2018-07-17T19:53:16.790Z,1.37
2018-07-17T19:55:45.425Z,1.40
2018-07-17T19:58:14.100Z,1.20
2018-07-17T20:00:42.813Z,1.27
2018-07-17T20:03:11.417Z,1.30
2018-07-17T20:05:40.105Z,1.63
2018-07-17T20:08:08.831Z,1.43
2018-07-17T20:10:37.612Z,1.70
2018-07-17T20:13:06.252Z,1.40
2018-07-17T20:15:35.109Z,1.43
2018-07-17T20:18:03.854Z,1.30
2018-07-17T20:20:32.747Z,1.57
2018-07-17T20:23:01.698Z,1.67
2018-07-17T20:25:30.327Z,1.83
2018-07-17T20:27:59.032Z,1.80
2018-07-17T20:30:27.604Z,1.80
2018-07-17T20:32:56.291Z,2.07
2018-07-17T20:35:24.975Z,2.10
2018-07-17T20:37:53.615Z,2.27
2018-07-17T20:40:22.313Z,2.57
2018-07-17T20:42:50.961Z,2.10
2018-07-17T20:45:19.643Z,2.20
2018-07-17T20:47:48.360Z,1.90
2018-07-17T20:50:17.096Z,2.60
2018-07-17T20:52:46.173Z,2.20
2018-07-17T20:55:14.648Z,2.07
2018-07-17T20:57:44.244Z,2.10
2018-07-17T21:00:12.926Z,2.10
2018-07-17T21:02:41.555Z,2.17
2018-07-17T21:05:10.289Z,2.20
2018-07-17T21:07:39.069Z,2.47
2018-07-17T21:10:08.325Z,2.13
2018-07-17T21:12:37.087Z,1.93
2018-07-17T21:15:06.121Z,1.90
2018-07-17T21:17:34.862Z,2.10
2018-07-17T21:20:03.515Z,2.00
2018-07-17T21:22:32.280Z,1.90
2018-07-17T21:25:00.931Z,1.80
2018-07-17T21:27:29.534Z,1.80
2018-07-17T21:29:58.256Z,1.93
2018-07-17T21:32:26.922Z,2.00
2018-07-17T21:34:55.580Z,1.90
2018-07-17T21:37:24.247Z,1.80
2018-07-17T21:39:53.038Z,1.97
2018-07-17T21:42:21.713Z,2.20
2018-07-17T21:44:50.321Z,2.20
2018-07-17T21:47:18.891Z,1.90
2018-07-17T21:49:47.427Z,2.23
2018-07-17T21:52:16.114Z,1.97
2018-07-17T21:54:44.756Z,2.40
2018-07-17T21:57:13.366Z,2.23
2018-07-17T21:59:42.145Z,2.30
2018-07-17T22:02:10.820Z,2.27
2018-07-17T22:04:39.471Z,2.40
2018-07-17T22:07:08.140Z,2.77
2018-07-17T22:09:37.107Z,2.20
2018-07-17T22:12:05.797Z,2.10
2018-07-17T22:14:34.414Z,2.40
2018-07-17T22:17:03.059Z,2.47
2018-07-17T22:19:31.700Z,2.30
2018-07-17T22:22:00.427Z,2.30
2018-07-17T22:24:29.065Z,2.50
2018-07-17T22:26:57.655Z,2.30
2018-07-17T22:29:26.278Z,2.30
2018-07-17T22:31:55.174Z,2.37
2018-07-17T22:34:23.803Z,2.50
2018-07-17T22:36:52.430Z,2.30
2018-07-17T22:39:21.094Z,2.13
2018-07-17T22:41:49.695Z,2.30
2018-07-17T22:44:18.334Z,2.60
2018-07-17T22:46:46.977Z,2.40
2018-07-17T22:49:21.567Z,2.23
2018-07-17T22:51:51.267Z,2.20
2018-07-17T22:54:19.955Z,2.53
2018-07-17T22:56:48.858Z,2.37
2018-07-17T22:59:18.535Z,2.30
2018-07-17T23:01:47.496Z,2.50
2018-07-17T23:04:16.466Z,3.30
2018-07-17T23:06:45.207Z,2.73
2018-07-17T23:09:13.785Z,2.43
2018-07-17T23:11:42.413Z,2.40
2018-07-17T23:14:11.091Z,2.50
2018-07-17T23:16:39.952Z,2.60
2018-07-17T23:19:08.624Z,2.40
2018-07-17T23:21:37.344Z,2.30
2018-07-17T23:24:06.117Z,2.60
2018-07-17T23:26:35.019Z,2.47
2018-07-17T23:29:03.690Z,2.20
2018-07-17T23:31:32.328Z,2.50
2018-07-17T23:34:01.132Z,2.47
2018-07-17T23:36:29.785Z,2.20
2018-07-17T23:38:58.526Z,2.30
2018-07-17T23:41:27.298Z,3.20
2018-07-17T23:43:55.982Z,2.50
2018-07-17T23:46:24.822Z,2.80
2018-07-17T23:48:53.411Z,2.63
2018-07-17T23:51:22.172Z,3.00
2018-07-17T23:53:50.880Z,2.60
2018-07-17T23:56:19.506Z,2.50
2018-07-17T23:58:48.479Z,2.93
